Columbiaville, Michigan
Current Conditions -  °F | °C
As of 1:13 PM on Tuesday 21 Oct 2014 (Local Time) from KD95 Reporting Station
Overcast Overcast  
Wind Chill: 38°   Ceiling: 1700
Heat Index: 44°   Visibility: 10mi
Dew Point: 38°   Wind: 12mph
Humidity: 80%   Direction: 10°N
Pressure: 30.06"   Gusts: 23mph
Location:  43.16°N, 83.41°W
Report Text: KD95 211713Z AUTO 01010G20KT 10SM OVC017 07/03 A3006 RMK AO2 T00670034
Loading
Personal Weather Stations






























Interactive Weather Map
Tropical Storm Tracking
New forecast layout! Learn more

10-Day Weather Forecast

Advertisements
Track Severe Weather on mobile